Time;durP1;ratioP1;P1;durP2;ratioP2;P2;SDS_P1;SDS_P2;PMS_P1;PMS_P2;Temp;Humidity;BMP_temperature;BMP_pressure;BME280_temperature;BME280_humidity;BME280_pressure;Samples;Min_cycle;Max_cycle;Signal;HPM_P1;HPM_P2
2024/03/05 00:01:00;;;;;;;114.93;45.78;;;7.70;77.60;;;;;;5091145;28;20451;-76
2024/03/05 00:03:25;;;;;;;111.68;43.85;;;7.60;79.10;;;;;;5092684;28;20381;-74
2024/03/05 00:05:51;;;;;;;111.97;43.67;;;7.60;79.80;;;;;;5092780;28;20378;-74
2024/03/05 00:08:17;;;;;;;102.78;42.55;;;7.50;80.40;;;;;;5097082;28;20448;-76
2024/03/05 00:10:42;;;;;;;108.40;43.53;;;7.40;81.10;;;;;;5104951;28;20739;-74
2024/03/05 00:13:08;;;;;;;109.07;43.35;;;7.40;82.30;;;;;;5092626;28;20761;-75
2024/03/05 00:15:34;;;;;;;109.50;42.70;;;7.30;82.40;;;;;;5092159;28;20409;-75
2024/03/05 00:17:59;;;;;;;113.93;43.92;;;7.20;84.10;;;;;;5091069;28;20802;-74
2024/03/05 00:20:25;;;;;;;121.20;45.83;;;7.20;85.10;;;;;;5092237;28;20385;-74
2024/03/05 00:22:51;;;;;;;117.95;45.15;;;7.20;86.40;;;;;;5092418;28;20389;-75
2024/03/05 00:25:17;;;;;;;111.88;44.00;;;7.20;86.80;;;;;;5092551;28;20749;-75
2024/03/05 00:27:44;;;;;;;121.72;44.08;;;7.30;87.20;;;;;;5092583;28;20381;-74
2024/03/05 00:30:13;;;;;;;110.10;44.28;;;7.20;87.10;;;;;;5090753;28;20416;-74
2024/03/05 00:32:39;;;;;;;119.40;44.40;;;7.20;86.90;;;;;;5091931;28;20401;-74
2024/03/05 00:35:06;;;;;;;110.55;43.92;;;7.20;87.40;;;;;;5092029;28;20386;-74
2024/03/05 00:37:31;;;;;;;112.13;45.25;;;7.10;88.30;;;;;;5092025;28;20378;-73
2024/03/05 00:39:58;;;;;;;119.65;45.47;;;7.10;88.10;;;;;;5091995;28;20461;-74
2024/03/05 00:42:23;;;;;;;117.93;45.85;;;7.00;88.50;;;;;;5091826;28;20749;-75
2024/03/05 00:44:49;;;;;;;113.63;44.67;;;7.00;89.70;;;;;;5091994;28;20404;-74
2024/03/05 00:47:14;;;;;;;109.45;43.78;;;6.90;90.50;;;;;;5091673;28;20405;-74
2024/03/05 00:49:40;;;;;;;115.13;43.47;;;6.90;91.30;;;;;;5091911;28;20402;-73
2024/03/05 00:52:06;;;;;;;108.18;43.33;;;6.90;91.80;;;;;;5091532;28;20375;-75
2024/03/05 00:54:31;;;;;;;117.30;44.33;;;6.80;92.30;;;;;;5092157;28;20390;-76
2024/03/05 00:56:57;;;;;;;120.97;45.78;;;6.80;92.60;;;;;;5091720;28;20414;-74
2024/03/05 00:59:22;;;;;;;133.80;45.65;;;6.80;93.20;;;;;;5095561;28;20381;-75
2024/03/05 01:01:49;;;;;;;125.88;47.25;;;6.90;93.70;;;;;;5092938;28;20458;-75
2024/03/05 01:04:14;;;;;;;128.60;46.78;;;6.90;93.60;;;;;;5092796;28;20410;-76
2024/03/05 01:06:43;;;;;;;126.93;46.23;;;6.80;93.60;;;;;;5091471;28;20462;-75
2024/03/05 01:09:15;;;;;;;123.47;46.38;;;6.90;95.30;;;;;;5091553;28;20389;-74
2024/03/05 01:11:41;;;;;;;131.45;46.83;;;7.00;93.80;;;;;;5092177;28;20370;-75
2024/03/05 01:14:07;;;;;;;127.13;44.78;;;7.00;92.90;;;;;;5092179;28;20731;-73
2024/03/05 01:16:32;;;;;;;125.63;46.83;;;7.10;92.60;;;;;;5092390;28;20455;-75
2024/03/05 01:18:59;;;;;;;117.00;46.67;;;7.10;91.80;;;;;;5092341;28;20424;-74
2024/03/05 01:21:25;;;;;;;122.72;45.45;;;7.10;91.60;;;;;;5092856;28;20837;-76
2024/03/05 01:23:50;;;;;;;114.20;45.00;;;7.00;92.50;;;;;;5092802;28;20413;-74
2024/03/05 01:26:16;;;;;;;115.97;44.63;;;7.10;91.60;;;;;;5093649;28;20385;-76
2024/03/05 01:28:41;;;;;;;121.30;46.03;;;7.00;91.50;;;;;;5094481;28;20382;-75
2024/03/05 01:31:08;;;;;;;126.17;45.00;;;7.00;92.40;;;;;;5096635;28;20379;-77
2024/03/05 01:33:36;;;;;;;116.83;44.20;;;7.00;93.00;;;;;;5097255;28;20786;-75
2024/03/05 01:36:03;;;;;;;117.47;45.53;;;7.00;93.20;;;;;;5093713;28;20880;-74
2024/03/05 01:38:29;;;;;;;117.50;44.97;;;7.00;93.50;;;;;;5094043;28;20393;-74
2024/03/05 01:40:55;;;;;;;115.60;43.53;;;7.10;92.40;;;;;;5097741;28;20382;-74
2024/03/05 01:43:20;;;;;;;110.37;43.43;;;7.20;91.60;;;;;;5102662;28;20476;-75
2024/03/05 01:45:46;;;;;;;117.17;44.90;;;7.50;87.90;;;;;;5105677;28;20559;-76
2024/03/05 01:48:13;;;;;;;119.60;43.70;;;7.50;86.50;;;;;;5105717;28;20389;-75
2024/03/05 01:50:39;;;;;;;118.50;44.95;;;7.50;86.60;;;;;;5106923;28;20499;-75
2024/03/05 01:53:08;;;;;;;115.35;43.47;;;7.60;86.40;;;;;;5104298;28;20388;-76
2024/03/05 01:55:35;;;;;;;108.88;43.83;;;7.60;86.80;;;;;;5099429;28;20390;-75
2024/03/05 01:58:03;;;;;;;112.72;45.25;;;7.60;86.50;;;;;;5091652;28;20477;-75
2024/03/05 02:00:29;;;;;;;119.25;43.90;;;7.70;86.20;;;;;;5102526;28;20389;-75
2024/03/05 02:02:55;;;;;;;113.50;43.38;;;7.80;82.30;;;;;;5107137;28;20389;-75
2024/03/05 02:05:22;;;;;;;123.28;44.55;;;7.80;83.10;;;;;;5110767;28;20405;-75
2024/03/05 02:07:48;;;;;;;111.35;43.97;;;7.70;83.50;;;;;;5111221;28;20374;-75
2024/03/05 02:10:14;;;;;;;121.90;45.13;;;7.70;83.20;;;;;;5112067;28;20404;-76
2024/03/05 02:12:42;;;;;;;116.80;44.30;;;7.60;83.60;;;;;;5112505;28;20402;-75
2024/03/05 02:15:11;;;;;;;108.03;43.42;;;7.50;85.50;;;;;;5100228;28;20389;-76
2024/03/05 02:17:39;;;;;;;116.50;45.55;;;7.40;86.10;;;;;;5095379;28;20871;-75
2024/03/05 02:20:09;;;;;;;118.50;45.10;;;7.40;86.40;;;;;;5094748;28;20462;-75
2024/03/05 02:22:38;;;;;;;121.75;43.45;;;7.30;86.60;;;;;;5095030;28;20394;-75
2024/03/05 02:25:05;;;;;;;121.82;46.80;;;7.30;87.90;;;;;;5095040;28;20398;-76
2024/03/05 02:27:35;;;;;;;115.80;46.50;;;7.30;88.40;;;;;;5096183;28;20378;-75
2024/03/05 02:30:02;;;;;;;117.90;44.20;;;7.20;88.80;;;;;;5094933;28;20370;-74
2024/03/05 02:32:28;;;;;;;113.28;44.85;;;7.20;89.30;;;;;;5093143;28;20824;-76
2024/03/05 02:34:54;;;;;;;116.85;45.50;;;7.30;89.70;;;;;;5094920;28;20457;-74
2024/03/05 02:37:21;;;;;;;122.53;44.20;;;7.40;89.30;;;;;;5094479;28;20823;-77
2024/03/05 02:39:47;;;;;;;106.47;44.10;;;7.40;88.40;;;;;;5094648;28;21001;-74
2024/03/05 02:42:13;;;;;;;113.85;43.42;;;7.50;87.40;;;;;;5094793;28;20390;-75
2024/03/05 02:44:39;;;;;;;125.85;47.72;;;7.50;87.40;;;;;;5094511;28;20435;-75
2024/03/05 02:47:07;;;;;;;108.45;43.67;;;7.50;87.60;;;;;;5093009;28;20790;-75
2024/03/05 02:49:34;;;;;;;116.30;44.73;;;7.60;86.30;;;;;;5094581;28;20800;-75
2024/03/05 02:51:59;;;;;;;111.97;44.17;;;7.60;86.00;;;;;;5094295;28;20508;-75
2024/03/05 02:54:25;;;;;;;112.30;44.00;;;7.60;86.50;;;;;;5100607;28;20408;-75
2024/03/05 02:56:51;;;;;;;108.55;44.15;;;7.80;82.80;;;;;;5099368;28;20447;-75
2024/03/05 02:59:17;;;;;;;112.55;43.22;;;7.80;82.80;;;;;;5096097;28;20378;-75
2024/03/05 03:01:50;;;;;;;115.03;44.42;;;7.80;82.10;;;;;;5095823;28;20473;-74
2024/03/05 03:04:15;;;;;;;109.15;44.00;;;7.90;80.50;;;;;;5094382;28;20398;-75
2024/03/05 03:06:41;;;;;;;109.90;44.53;;;7.90;80.50;;;;;;5094647;28;20925;-75
2024/03/05 03:09:07;;;;;;;111.63;44.55;;;7.90;79.20;;;;;;5094306;28;20366;-75
2024/03/05 03:11:34;;;;;;;114.20;43.70;;;7.90;80.00;;;;;;5094439;28;20449;-74
2024/03/05 03:14:00;;;;;;;102.13;42.10;;;7.90;80.40;;;;;;5094791;28;20382;-76
2024/03/05 03:16:26;;;;;;;117.78;45.42;;;7.90;81.60;;;;;;5095145;28;20402;-75
2024/03/05 03:18:51;;;;;;;113.00;43.70;;;8.00;79.10;;;;;;5099607;28;20386;-75
2024/03/05 03:21:17;;;;;;;112.15;43.92;;;7.90;78.90;;;;;;5096309;28;20390;-76
2024/03/05 03:23:44;;;;;;;102.13;41.97;;;7.90;79.20;;;;;;5097621;28;20378;-76
2024/03/05 03:26:11;;;;;;;106.13;43.95;;;7.90;80.20;;;;;;5094051;28;20382;-75
2024/03/05 03:28:37;;;;;;;107.70;44.53;;;7.80;80.90;;;;;;5093943;28;20406;-76
2024/03/05 03:31:05;;;;;;;108.88;44.92;;;7.80;81.20;;;;;;5095550;28;20378;-76
2024/03/05 03:33:31;;;;;;;109.82;45.92;;;7.80;81.20;;;;;;5094304;28;20382;-75
2024/03/05 03:35:57;;;;;;;113.50;45.75;;;7.80;81.30;;;;;;5092642;28;20826;-75
2024/03/05 03:38:23;;;;;;;113.70;44.65;;;7.80;81.30;;;;;;5093822;28;20390;-75
2024/03/05 03:40:49;;;;;;;105.95;44.70;;;7.80;81.20;;;;;;5094136;28;20795;-76
2024/03/05 03:43:14;;;;;;;118.22;45.90;;;7.80;82.20;;;;;;5094226;28;20386;-76
2024/03/05 03:45:40;;;;;;;111.03;44.70;;;7.90;80.60;;;;;;5094325;28;20749;-75
2024/03/05 03:48:06;;;;;;;116.85;44.65;;;7.90;78.70;;;;;;5094437;28;20753;-77
2024/03/05 03:50:32;;;;;;;111.22;47.22;;;7.90;79.20;;;;;;5097040;28;20445;-75
2024/03/05 03:52:58;;;;;;;112.32;45.83;;;7.90;79.10;;;;;;5094197;28;20382;-74
2024/03/05 03:55:24;;;;;;;108.57;44.35;;;7.90;79.30;;;;;;5093863;28;20384;-75
2024/03/05 03:57:51;;;;;;;116.65;47.20;;;7.80;79.50;;;;;;5093527;28;20533;-74
2024/03/05 04:00:17;;;;;;;108.38;45.33;;;7.90;79.00;;;;;;5092158;28;20394;-74
2024/03/05 04:02:42;;;;;;;126.17;46.27;;;7.90;79.20;;;;;;5093625;28;20511;-76
2024/03/05 04:05:09;;;;;;;109.22;44.38;;;7.80;79.60;;;;;;5093399;28;20884;-74
2024/03/05 04:07:36;;;;;;;113.15;45.83;;;7.90;79.30;;;;;;5093576;28;20395;-76
2024/03/05 04:10:02;;;;;;;113.45;46.28;;;7.90;78.80;;;;;;5094131;28;20455;-75
2024/03/05 04:12:27;;;;;;;110.47;44.33;;;7.90;78.80;;;;;;5094113;28;20747;-76
2024/03/05 04:14:54;;;;;;;112.70;46.40;;;7.90;78.20;;;;;;5104192;28;20378;-75
2024/03/05 04:17:20;;;;;;;126.68;45.97;;;7.90;78.30;;;;;;5098983;28;20425;-75
2024/03/05 04:19:47;;;;;;;121.35;46.75;;;7.80;78.30;;;;;;5093992;28;20385;-74
2024/03/05 04:22:14;;;;;;;126.70;47.55;;;7.90;77.90;;;;;;5093425;28;20381;-76
2024/03/05 04:24:47;;;;;;;114.10;46.40;;;7.90;78.40;;;;;;5093722;28;20412;-75
2024/03/05 04:27:12;;;;;;;114.35;46.05;;;8.00;77.30;;;;;;5098169;28;20382;-74
2024/03/05 04:29:41;;;;;;;122.45;46.70;;;8.00;76.80;;;;;;5097973;28;20450;-76
2024/03/05 04:32:10;;;;;;;121.10;45.83;;;8.00;76.40;;;;;;5098754;28;20442;-75
2024/03/05 04:34:36;;;;;;;123.82;46.63;;;8.00;76.40;;;;;;5099686;28;20386;-75
2024/03/05 04:37:02;;;;;;;117.30;46.13;;;8.00;76.50;;;;;;5098001;28;20563;-75
2024/03/05 04:39:27;;;;;;;118.47;46.20;;;8.10;75.50;;;;;;5096610;28;20482;-76
2024/03/05 04:41:53;;;;;;;112.13;45.90;;;8.10;74.50;;;;;;5099697;28;20382;-75
2024/03/05 04:44:19;;;;;;;122.00;45.42;;;8.20;73.40;;;;;;5108272;28;20406;-75
2024/03/05 04:46:45;;;;;;;113.57;46.67;;;8.20;73.90;;;;;;5109071;28;20408;-78
2024/03/05 04:49:10;;;;;;;115.05;45.72;;;8.20;73.80;;;;;;5100903;28;20370;-74
2024/03/05 04:51:37;;;;;;;115.22;47.10;;;8.20;73.40;;;;;;5103197;28;20774;-75
2024/03/05 04:54:02;;;;;;;112.28;44.58;;;8.20;73.30;;;;;;5093143;28;20395;-77
2024/03/05 04:56:28;;;;;;;107.15;43.33;;;8.30;72.00;;;;;;5093084;28;20875;-75
2024/03/05 04:58:53;;;;;;;115.03;44.80;;;8.30;72.00;;;;;;5091690;28;20386;-76
2024/03/05 05:01:19;;;;;;;110.83;42.90;;;8.30;71.50;;;;;;5091609;28;20382;-76
2024/03/05 05:03:45;;;;;;;114.97;44.67;;;8.30;71.40;;;;;;5091534;28;20390;-76
2024/03/05 05:06:11;;;;;;;116.93;45.43;;;8.30;71.60;;;;;;5091359;28;20413;-76
2024/03/05 05:08:36;;;;;;;121.53;45.33;;;8.30;71.10;;;;;;5091158;28;20401;-77
2024/03/05 05:11:02;;;;;;;108.03;44.67;;;8.30;70.90;;;;;;5091418;28;20887;-77
2024/03/05 05:13:27;;;;;;;106.45;42.53;;;8.40;70.70;;;;;;5091738;28;20409;-75
2024/03/05 05:15:56;;;;;;;114.28;43.70;;;8.40;70.00;;;;;;5091187;28;20485;-76
2024/03/05 05:18:21;;;;;;;106.65;43.05;;;8.40;70.30;;;;;;5091205;28;20856;-75
2024/03/05 05:20:47;;;;;;;106.60;42.47;;;8.40;69.70;;;;;;5091577;28;20397;-75
2024/03/05 05:23:12;;;;;;;105.30;43.10;;;8.40;70.10;;;;;;5090852;28;20374;-76
2024/03/05 05:25:38;;;;;;;106.35;42.67;;;8.40;69.20;;;;;;5092550;28;20408;-76
2024/03/05 05:28:06;;;;;;;108.00;42.50;;;8.40;69.80;;;;;;5090514;28;20382;-76
2024/03/05 05:30:33;;;;;;;105.07;40.97;;;8.40;69.60;;;;;;5090799;28;20374;-76
2024/03/05 05:32:58;;;;;;;108.70;41.75;;;8.40;69.40;;;;;;5091081;28;20464;-75
2024/03/05 05:35:24;;;;;;;103.10;41.63;;;8.40;69.70;;;;;;5090934;28;20798;-75
2024/03/05 05:37:49;;;;;;;107.83;42.73;;;8.40;68.20;;;;;;5090560;28;20382;-75
2024/03/05 05:40:18;;;;;;;105.47;43.43;;;8.40;68.90;;;;;;5093876;28;20876;-75
2024/03/05 05:42:48;;;;;;;107.72;41.85;;;8.50;68.50;;;;;;5095131;28;20390;-74
2024/03/05 05:45:14;;;;;;;105.67;42.23;;;8.50;68.30;;;;;;5094638;28;20463;-74
2024/03/05 05:47:53;;;;;;;102.87;41.30;;;8.50;68.70;;;;;;5094671;28;20381;-74
2024/03/05 05:50:21;;;;;;;101.45;41.00;;;8.40;69.30;;;;;;5094892;28;20790;-75
2024/03/05 05:52:48;;;;;;;96.53;39.80;;;8.40;69.40;;;;;;5094891;28;20382;-76
2024/03/05 05:55:19;;;;;;;96.80;40.27;;;8.40;70.20;;;;;;5094553;28;20381;-76
2024/03/05 05:57:48;;;;;;;111.15;42.92;;;8.40;69.40;;;;;;5094636;28;20879;-75
2024/03/05 06:03:03;;;;;;;102.13;41.97;;;8.40;69.40;;;;;;5094740;28;20880;-76
2024/03/05 06:05:31;;;;;;;100.70;41.08;;;8.40;69.60;;;;;;5095151;28;20477;-77
2024/03/05 06:07:59;;;;;;;100.10;40.40;;;8.40;69.80;;;;;;5094302;28;20378;-75
2024/03/05 06:10:25;;;;;;;110.05;42.55;;;8.40;69.60;;;;;;5094405;28;20857;-76
2024/03/05 06:12:51;;;;;;;108.82;41.92;;;8.40;69.50;;;;;;5094740;28;20967;-74
2024/03/05 06:15:19;;;;;;;98.90;40.38;;;8.40;69.50;;;;;;5096224;28;20868;-75
2024/03/05 06:17:46;;;;;;;105.10;42.40;;;8.40;69.50;;;;;;5112145;28;20392;-74
2024/03/05 06:20:13;;;;;;;100.82;42.65;;;8.40;69.50;;;;;;5101564;28;20386;-74
2024/03/05 06:22:40;;;;;;;103.63;41.58;;;8.50;68.80;;;;;;5102164;28;20446;-74
2024/03/05 06:25:11;;;;;;;96.93;40.30;;;8.60;68.20;;;;;;5103203;28;20499;-75
2024/03/05 06:27:37;;;;;;;107.25;41.65;;;8.70;67.20;;;;;;5102324;28;20420;-76
2024/03/05 06:30:07;;;;;;;112.53;43.13;;;8.70;67.40;;;;;;5103964;28;20838;-76
2024/03/05 06:32:42;;;;;;;98.72;40.72;;;8.70;67.70;;;;;;5099941;28;20468;-75
2024/03/05 06:35:10;;;;;;;110.57;42.00;;;8.70;67.10;;;;;;5097517;28;20386;-76
2024/03/05 06:37:38;;;;;;;96.13;40.33;;;8.70;67.20;;;;;;5095594;28;20382;-76
2024/03/05 06:40:09;;;;;;;98.45;39.92;;;8.80;66.90;;;;;;5094804;28;20390;-74
2024/03/05 06:42:41;;;;;;;107.00;43.15;;;8.80;66.60;;;;;;5094239;28;20412;-76
2024/03/05 06:45:14;;;;;;;101.05;41.17;;;8.80;65.70;;;;;;5093821;28;20899;-75
2024/03/05 06:47:46;;;;;;;95.28;39.88;;;8.90;65.90;;;;;;5092961;28;20393;-77
2024/03/05 06:50:22;;;;;;;102.73;41.50;;;8.90;65.50;;;;;;5093003;28;20386;-77
2024/03/05 06:58:16;;;;;;;104.83;40.90;;;9.00;64.30;;;;;;5114091;28;20597;-75
2024/03/05 07:00:44;;;;;;;99.80;40.40;;;9.00;63.40;;;;;;5105860;28;20406;-76
2024/03/05 07:03:12;;;;;;;102.18;41.42;;;9.00;63.10;;;;;;5095965;28;20876;-76
2024/03/05 07:05:37;;;;;;;107.05;41.10;;;9.10;62.30;;;;;;5095867;28;20408;-75
2024/03/05 07:08:05;;;;;;;111.80;41.40;;;9.00;62.90;;;;;;5112556;28;20388;-75
2024/03/05 07:10:33;;;;;;;111.90;42.63;;;9.00;63.10;;;;;;5104813;28;20385;-75
2024/03/05 07:12:59;;;;;;;99.17;40.33;;;9.10;63.20;;;;;;5110750;28;20392;-75
2024/03/05 07:15:25;;;;;;;100.78;40.90;;;9.20;62.90;;;;;;5109943;28;20409;-75
2024/03/05 07:17:50;;;;;;;100.10;42.10;;;9.20;62.90;;;;;;5095919;27;20386;-75
2024/03/05 07:20:19;;;;;;;97.73;40.50;;;9.20;62.70;;;;;;5117566;27;20701;-75
2024/03/05 07:22:47;;;;;;;105.57;42.10;;;9.20;62.40;;;;;;5093231;28;20425;-76
2024/03/05 07:25:22;;;;;;;103.70;41.72;;;9.20;63.10;;;;;;5093865;28;20504;-76
2024/03/05 07:27:55;;;;;;;101.22;42.78;;;9.30;62.50;;;;;;5093293;28;20392;-76
2024/03/05 07:30:23;;;;;;;103.47;42.15;;;9.30;62.60;;;;;;5105370;28;20829;-74
2024/03/05 07:32:49;;;;;;;97.38;41.45;;;9.30;63.00;;;;;;5095133;28;20382;-76
2024/03/05 07:35:17;;;;;;;109.03;40.20;;;9.20;62.70;;;;;;5096122;28;20478;-74
2024/03/05 07:37:46;;;;;;;94.45;39.70;;;9.30;63.10;;;;;;5103979;28;20429;-75
2024/03/05 07:40:16;;;;;;;101.10;40.60;;;9.30;62.30;;;;;;5124075;28;20417;-73
2024/03/05 07:42:47;;;;;;;104.20;41.17;;;9.30;62.80;;;;;;5119116;28;20460;-70
2024/03/05 07:45:16;;;;;;;108.15;41.53;;;9.30;62.40;;;;;;5122859;28;20405;-72
2024/03/05 07:47:43;;;;;;;100.78;40.60;;;9.30;61.60;;;;;;5107492;28;20376;-73
2024/03/05 07:50:12;;;;;;;103.47;40.47;;;9.30;60.90;;;;;;5114359;28;20442;-74
2024/03/05 07:52:39;;;;;;;96.55;39.85;;;9.40;60.70;;;;;;5115557;28;20460;-74
2024/03/05 07:55:07;;;;;;;107.35;41.33;;;9.40;60.50;;;;;;5115487;28;20932;-75
2024/03/05 07:57:34;;;;;;;97.70;40.45;;;9.40;60.20;;;;;;5114902;28;20922;-74
2024/03/05 08:00:00;;;;;;;98.30;43.10;;;9.40;60.50;;;;;;5098063;28;20817;-75
2024/03/05 08:02:25;;;;;;;101.53;41.53;;;9.50;60.90;;;;;;5115009;28;20384;-77
2024/03/05 08:04:51;;;;;;;101.20;41.60;;;9.50;61.20;;;;;;5114486;28;20400;-75
2024/03/05 08:07:18;;;;;;;96.72;40.30;;;9.50;61.30;;;;;;5111865;28;20487;-74
2024/03/05 08:09:44;;;;;;;105.38;42.45;;;9.60;60.60;;;;;;5114298;28;20407;-74
2024/03/05 08:12:09;;;;;;;100.05;41.28;;;9.60;61.00;;;;;;5114584;28;20823;-75
2024/03/05 08:14:35;;;;;;;106.13;40.80;;;9.60;61.20;;;;;;5112747;28;20377;-75
2024/03/05 08:17:01;;;;;;;96.63;39.90;;;9.70;61.10;;;;;;5112299;28;20394;-76
2024/03/05 08:19:29;;;;;;;101.38;39.65;;;9.80;59.40;;;;;;5112632;28;20383;-76
2024/03/05 08:21:54;;;;;;;101.10;41.88;;;9.80;59.00;;;;;;5113406;28;20376;-76
2024/03/05 08:24:20;;;;;;;107.57;41.55;;;9.80;59.00;;;;;;5112798;28;20450;-75
2024/03/05 08:26:45;;;;;;;108.67;41.83;;;9.80;59.50;;;;;;5112555;28;20647;-75
2024/03/05 08:29:11;;;;;;;96.13;40.57;;;9.80;59.40;;;;;;5113772;28;20417;-77
2024/03/05 08:31:38;;;;;;;95.33;39.97;;;9.90;58.70;;;;;;5095856;28;20392;-75
2024/03/05 08:34:04;;;;;;;105.38;43.60;;;9.90;58.70;;;;;;5113392;28;20421;-75
2024/03/05 08:36:36;;;;;;;98.93;40.95;;;9.90;58.50;;;;;;5124018;28;20380;-75
2024/03/05 08:39:04;;;;;;;106.75;41.72;;;10.00;57.80;;;;;;5109090;28;20387;-74
2024/03/05 08:41:31;;;;;;;93.82;40.03;;;10.00;57.20;;;;;;5118133;28;20804;-77
2024/03/05 08:43:56;;;;;;;101.13;41.25;;;10.00;56.70;;;;;;5112389;28;20440;-76
2024/03/05 08:46:22;;;;;;;98.50;41.37;;;10.20;55.70;;;;;;5094387;28;20396;-76
2024/03/05 08:48:48;;;;;;;98.68;40.00;;;10.20;55.70;;;;;;5094795;28;20388;-76
2024/03/05 08:51:13;;;;;;;103.47;39.90;;;10.20;55.20;;;;;;5113235;28;20377;-76
2024/03/05 08:53:39;;;;;;;99.33;40.53;;;10.20;55.70;;;;;;5112654;28;20850;-76
2024/03/05 08:56:07;;;;;;;101.33;41.30;;;10.20;55.30;;;;;;5113564;28;20377;-77
2024/03/05 08:58:33;;;;;;;97.40;40.70;;;10.20;55.40;;;;;;5112993;28;20415;-76
2024/03/05 09:00:58;;;;;;;98.37;40.97;;;10.20;55.90;;;;;;5112490;28;20386;-77
2024/03/05 09:03:24;;;;;;;98.97;41.43;;;10.20;56.00;;;;;;5113111;28;20419;-77
2024/03/05 09:05:49;;;;;;;100.60;40.30;;;10.20;56.50;;;;;;5112766;28;20396;-76
2024/03/05 09:08:15;;;;;;;108.65;44.25;;;10.20;57.30;;;;;;5112736;28;20380;-76
2024/03/05 09:10:40;;;;;;;94.90;40.53;;;10.10;57.90;;;;;;5113329;28;20368;-77
2024/03/05 09:13:06;;;;;;;101.63;41.33;;;10.10;57.90;;;;;;5093062;28;20408;-76
2024/03/05 09:15:31;;;;;;;110.60;43.27;;;10.10;58.40;;;;;;5113191;28;20435;-75
2024/03/05 09:17:57;;;;;;;101.47;41.30;;;10.10;58.30;;;;;;5115552;28;20388;-75
2024/03/05 09:20:23;;;;;;;103.33;41.33;;;10.10;57.90;;;;;;5116188;28;20373;-75
2024/03/05 09:22:48;;;;;;;94.90;40.15;;;10.10;58.40;;;;;;5111596;28;20387;-76
2024/03/05 09:25:15;;;;;;;100.60;41.63;;;10.10;58.90;;;;;;5111970;28;20500;-75
2024/03/05 09:27:42;;;;;;;104.75;42.90;;;10.10;58.80;;;;;;5111535;28;20380;-75
2024/03/05 09:30:08;;;;;;;103.85;40.88;;;10.10;59.00;;;;;;5111469;28;20377;-75
2024/03/05 09:32:35;;;;;;;98.03;41.65;;;10.10;59.30;;;;;;5111350;28;20433;-76
2024/03/05 09:35:01;;;;;;;100.03;40.55;;;10.20;58.80;;;;;;5111662;28;20384;-78
2024/03/05 09:37:29;;;;;;;97.10;41.63;;;10.30;59.10;;;;;;5111355;28;20376;-75
2024/03/05 09:39:55;;;;;;;104.10;43.60;;;10.40;57.90;;;;;;5111633;28;20470;-76
2024/03/05 09:42:21;;;;;;;108.40;43.23;;;10.40;57.50;;;;;;5115201;28;20917;-75
2024/03/05 09:44:49;;;;;;;101.20;40.53;;;10.40;57.00;;;;;;5097962;28;20400;-77
2024/03/05 09:47:17;;;;;;;97.40;41.40;;;10.40;57.40;;;;;;5118949;28;20467;-74
2024/03/05 09:49:44;;;;;;;107.15;41.20;;;10.40;58.20;;;;;;5118218;28;20380;-76
2024/03/05 09:52:11;;;;;;;107.25;43.85;;;10.40;58.60;;;;;;5111941;28;20373;-76
2024/03/05 09:54:38;;;;;;;95.00;40.63;;;10.40;58.50;;;;;;5111288;28;20893;-76
2024/03/05 09:57:05;;;;;;;108.32;43.15;;;10.40;58.20;;;;;;5110717;28;20376;-76
2024/03/05 09:59:30;;;;;;;96.00;43.20;;;10.50;57.80;;;;;;5111858;28;20854;-76
2024/03/05 10:01:56;;;;;;;108.10;43.23;;;10.50;58.50;;;;;;5111590;28;20376;-74
2024/03/05 10:04:26;;;;;;;106.93;44.00;;;10.50;58.90;;;;;;5111739;28;20392;-76
2024/03/05 10:06:51;;;;;;;106.75;43.03;;;10.50;59.40;;;;;;5111833;28;20751;-76
2024/03/05 10:09:17;;;;;;;107.60;43.43;;;10.50;60.00;;;;;;5093002;28;20372;-76
2024/03/05 10:11:44;;;;;;;105.85;42.45;;;10.40;60.50;;;;;;5111807;28;20467;-76
2024/03/05 10:14:10;;;;;;;102.67;42.37;;;10.40;60.70;;;;;;5112098;28;20459;-77
2024/03/05 10:16:37;;;;;;;104.05;42.83;;;10.30;61.40;;;;;;5112225;28;20396;-76
2024/03/05 10:19:14;;;;;;;102.65;42.38;;;10.30;62.20;;;;;;5111603;28;20425;-77
2024/03/05 10:21:40;;;;;;;106.85;43.05;;;10.30;62.10;;;;;;5111615;28;20383;-76
2024/03/05 10:24:07;;;;;;;106.60;42.00;;;10.30;63.00;;;;;;5112314;28;20816;-74
2024/03/05 10:26:34;;;;;;;99.93;42.95;;;10.30;63.90;;;;;;5114787;28;20372;-76
2024/03/05 10:29:08;;;;;;;114.15;45.03;;;10.30;64.50;;;;;;5115304;28;20385;-76
2024/03/05 10:31:38;;;;;;;108.68;41.88;;;10.30;65.90;;;;;;5116676;28;20388;-77
2024/03/05 10:34:04;;;;;;;97.22;42.08;;;10.40;65.20;;;;;;5117635;28;20376;-75
2024/03/05 10:36:33;;;;;;;89.95;38.60;;;10.30;65.30;;;;;;5116970;28;20878;-75
2024/03/05 10:38:59;;;;;;;93.63;40.33;;;10.30;65.10;;;;;;5114628;28;20498;-77
2024/03/05 10:41:43;;;;;;;95.35;41.70;;;10.30;65.40;;;;;;5114893;28;20799;-77
2024/03/05 10:44:13;;;;;;;96.40;40.70;;;10.30;65.90;;;;;;5116327;28;20400;-76
2024/03/05 10:46:40;;;;;;;101.32;41.70;;;10.30;67.00;;;;;;5117823;28;20400;-76
2024/03/05 10:49:07;;;;;;;98.88;41.20;;;10.30;67.90;;;;;;5134657;28;20377;-74
2024/03/05 10:51:40;;;;;;;96.85;40.00;;;10.30;67.60;;;;;;5135944;28;20410;-76
2024/03/05 10:54:07;;;;;;;106.35;42.90;;;10.30;68.20;;;;;;5116209;28;20916;-76
2024/03/05 10:56:35;;;;;;;97.80;42.88;;;10.40;68.80;;;;;;5115136;28;20392;-76
2024/03/05 11:01:42;;;;;;;87.55;39.17;;;10.50;68.50;;;;;;5115304;28;20383;-76
2024/03/05 11:04:29;;;;;;;97.82;39.63;;;10.50;68.40;;;;;;5114481;28;20421;-75
2024/03/05 11:06:57;;;;;;;84.95;37.15;;;10.40;68.80;;;;;;5119382;28;20375;-75
2024/03/05 11:09:24;;;;;;;89.80;38.05;;;10.50;68.30;;;;;;5114542;28;21084;-75
2024/03/05 11:12:08;;;;;;;90.65;39.38;;;10.50;68.00;;;;;;5114346;28;20372;-76
2024/03/05 11:14:35;;;;;;;84.07;38.70;;;10.50;67.90;;;;;;5114587;28;20720;-77
2024/03/05 11:17:09;;;;;;;82.15;37.05;;;10.50;68.30;;;;;;5114011;28;20423;-76
2024/03/05 11:19:38;;;;;;;85.38;38.15;;;10.50;67.70;;;;;;5114446;28;20951;-77
2024/03/05 11:22:23;;;;;;;68.38;31.92;;;10.50;68.40;;;;;;5113783;28;20388;-75
2024/03/05 11:25:02;;;;;;;82.97;35.33;;;10.50;67.20;;;;;;5113667;28;20429;-76
2024/03/05 11:27:30;;;;;;;66.75;32.03;;;10.50;67.30;;;;;;5113836;28;20917;-76
2024/03/05 11:30:06;;;;;;;75.05;34.25;;;10.50;67.10;;;;;;5114547;28;20810;-75
2024/03/05 11:32:37;;;;;;;72.28;33.08;;;10.60;67.70;;;;;;5114131;28;20372;-77
2024/03/05 11:35:04;;;;;;;70.35;32.13;;;10.70;66.80;;;;;;5113501;28;20788;-77
2024/03/05 11:37:50;;;;;;;61.15;31.20;;;10.70;66.50;;;;;;5112975;28;20714;-75
2024/03/05 11:40:18;;;;;;;50.50;23.40;;;10.80;63.80;;;;;;5113812;28;20381;-76
2024/03/05 11:42:47;;;;;;;41.83;22.73;;;10.70;53.60;;;;;;5113932;28;20732;-77
2024/03/05 11:45:41;;;;;;;47.55;23.95;;;10.70;53.50;;;;;;5112971;28;20408;-76
2024/03/05 11:48:18;;;;;;;49.78;26.48;;;10.70;53.90;;;;;;5112866;28;20369;-76
2024/03/05 11:50:50;;;;;;;47.45;25.42;;;10.70;55.10;;;;;;5113378;28;20373;-75
2024/03/05 11:53:16;;;;;;;53.92;27.13;;;10.70;56.30;;;;;;5113418;28;20372;-77
2024/03/05 11:55:42;;;;;;;56.20;28.70;;;10.80;57.50;;;;;;5115166;28;20380;-76
2024/03/05 11:58:10;;;;;;;55.73;28.03;;;10.70;59.50;;;;;;5116273;28;20897;-77
2024/03/05 12:00:37;;;;;;;57.92;29.20;;;10.70;59.00;;;;;;5118007;28;20388;-76
2024/03/05 12:03:03;;;;;;;67.40;29.50;;;10.70;59.90;;;;;;5116910;28;20388;-75
2024/03/05 12:05:29;;;;;;;59.28;29.65;;;10.70;60.80;;;;;;5113235;28;20404;-76
2024/03/05 12:08:06;;;;;;;64.00;30.27;;;10.70;61.60;;;;;;5113196;28;20877;-77
2024/03/05 12:10:39;;;;;;;61.30;30.15;;;10.70;62.10;;;;;;5112890;28;20425;-76
2024/03/05 12:13:05;;;;;;;59.00;30.15;;;10.70;61.30;;;;;;5112766;28;20457;-74
2024/03/05 12:15:33;;;;;;;56.70;28.70;;;10.60;61.40;;;;;;5112385;28;20882;-76
2024/03/05 12:18:04;;;;;;;68.10;31.60;;;10.60;61.60;;;;;;5112943;28;20412;-75
2024/03/05 12:20:29;;;;;;;59.83;29.17;;;10.60;61.20;;;;;;5113978;28;20388;-75
2024/03/05 12:22:55;;;;;;;65.78;32.78;;;10.70;60.70;;;;;;5113825;28;20384;-76
2024/03/05 12:25:25;;;;;;;59.90;30.20;;;10.60;61.60;;;;;;5112859;28;20427;-75
2024/03/05 12:27:51;;;;;;;60.08;31.08;;;10.60;63.80;;;;;;5112876;28;20422;-75
2024/03/05 12:30:17;;;;;;;61.65;30.70;;;10.60;64.60;;;;;;5112675;28;20739;-76
2024/03/05 12:32:48;;;;;;;65.67;30.87;;;10.60;64.00;;;;;;5094485;28;20388;-75
2024/03/05 12:35:14;;;;;;;56.75;27.98;;;10.60;64.10;;;;;;5112859;28;20380;-76
2024/03/05 12:37:43;;;;;;;49.60;25.80;;;10.60;62.20;;;;;;5112468;28;20459;-77